Date,TemperatureHighF,TemperatureAvgF,TemperatureLowF,DewpointHighF,DewpointAvgF,DewpointLowF,HumidityHigh,HumidityAvg,HumidityLow,PressureMaxIn,PressureMinIn,WindSpeedMaxMPH,WindSpeedAvgMPH,GustSpeedMaxMPH,PrecipitationSumIn
2013-1-1,54,38,30,42,35,29,99,88,52,0.00,40.00,4,1,10,0.01
2013-1-2,57,39,30,43,35,29,98,87,48,0.00,40.00,2,1,6,0.00
2013-1-3,51,42,32,45,38,31,98,90,67,0.00,40.00,2,1,5,0.00
2013-1-4,56,43,34,50,40,34,99,91,61,0.00,40.00,2,1,6,0.00
2013-1-5,47,41,35,44,40,34,99,97,84,0.00,40.00,3,1,6,0.44
2013-1-6,52,43,37,46,41,37,99,95,75,0.00,40.00,5,1,11,0.20
2013-1-7,56,45,37,50,44,37,99,95,77,0.00,40.00,5,2,10,0.00
2013-1-8,57,48,43,49,46,43,99,94,70,0.00,40.00,4,1,9,0.00
2013-1-9,47,44,36,47,43,35,100,98,91,0.00,40.00,5,2,13,0.18
2013-1-10,45,38,32,40,35,32,99,90,66,0.00,40.00,6,2,14,0.11
2013-1-11,48,37,29,41,34,28,98,91,67,0.00,40.00,5,2,10,0.01
2013-1-12,48,36,28,38,31,25,98,84,42,0.00,40.00,4,1,9,0.00
2013-1-13,48,35,27,35,29,26,97,83,43,0.00,40.00,3,1,6,0.00
2013-1-14,52,37,27,37,30,24,97,83,33,0.00,40.00,3,1,7,0.00
2013-1-15,56,39,29,41,34,28,98,86,37,0.00,40.00,3,1,6,0.00
2013-1-16,57,39,29,45,36,28,98,91,56,0.00,40.00,2,1,5,0.00
2013-1-17,61,41,30,47,38,29,99,89,51,0.00,40.00,3,1,5,0.01
2013-1-18,66,44,33,50,38,32,99,84,34,0.00,40.00,2,1,5,0.01
2013-1-19,66,46,34,47,39,34,98,82,37,0.00,40.00,2,1,5,0.00
2013-1-20,68,46,36,45,36,27,97,73,21,0.00,40.00,2,1,5,0.00
2013-1-21,69,46,34,45,37,24,94,74,18,0.00,40.00,2,1,5,0.00
2013-1-22,65,50,36,43,34,27,91,59,27,0.00,40.00,2,1,7,0.00
2013-1-23,59,54,48,49,38,26,99,63,28,0.00,40.00,5,2,11,0.35
2013-1-24,56,52,48,55,51,48,100,97,88,0.00,40.00,3,1,6,0.07
2013-1-25,57,52,49,54,50,48,99,95,83,0.00,40.00,3,1,6,0.01
2013-1-26,52,46,38,49,43,37,99,90,63,0.00,40.00,6,2,11,0.06
2013-1-27,50,40,33,41,36,32,98,87,60,0.00,40.00,5,2,13,0.01
2013-1-28,52,43,34,46,39,34,98,88,64,0.00,40.00,6,2,16,0.01
2013-1-29,54,44,38,43,40,37,97,87,61,0.00,40.00,5,2,10,0.01
2013-1-30,59,43,31,44,38,31,98,86,54,0.00,40.00,3,1,7,0.00
2013-1-31,65,48,34,49,42,34,99,83,47,0.00,40.00,3,1,7,0.00
2013-2-1,68,48,38,52,42,37,99,83,34,0.00,40.00,4,1,7,0.00
2013-2-2,53,46,39,49,43,38,99,93,77,0.00,40.00,3,1,6,0.00
2013-2-3,53,47,44,45,44,42,97,89,72,0.00,40.00,4,2,9,0.00
2013-2-4,54,45,41,47,43,40,98,94,78,0.00,40.00,3,2,6,0.00
2013-2-5,53,46,42,47,44,41,98,93,75,0.00,40.00,4,1,8,0.00
2013-2-6,55,43,35,45,39,34,98,88,62,0.00,40.00,4,1,7,0.00
2013-2-7,50,43,36,44,41,35,98,93,73,0.00,40.00,4,1,9,0.49
2013-2-8,52,40,31,46,36,31,98,87,62,0.00,40.00,5,2,11,0.12
2013-2-9,56,40,29,40,33,28,97,81,43,0.00,40.00,4,2,8,0.00
2013-2-10,61,43,31,48,36,30,98,78,39,0.00,40.00,3,1,8,0.00
2013-2-11,64,44,32,50,38,31,98,82,40,0.00,40.00,4,1,8,0.00
2013-2-12,63,44,34,50,40,34,98,89,47,0.00,40.00,4,1,9,0.00
2013-2-13,63,44,34,48,40,34,98,88,53,0.00,40.00,4,1,9,0.00
2013-2-14,73,51,36,56,42,35,99,77,33,0.00,40.00,4,1,6,0.00
2013-2-15,73,51,38,48,40,37,97,73,28,0.00,40.00,4,1,9,0.00
2013-2-16,64,47,38,47,42,37,98,84,52,0.00,40.00,5,1,9,0.00
2013-2-17,58,44,37,44,39,36,98,85,50,0.00,40.00,5,2,10,0.00
2013-2-18,51,43,39,41,39,36,97,86,59,0.00,40.00,4,2,11,0.00
2013-2-19,44,40,34,41,37,33,98,90,66,0.00,40.00,5,2,14,0.43
2013-2-20,53,40,29,39,35,28,98,83,56,0.00,40.00,7,3,18,0.01
2013-2-21,54,43,33,42,36,32,97,81,51,0.00,40.00,6,2,14,0.00
2013-2-22,55,43,32,43,38,31,98,84,50,0.00,40.00,5,2,11,0.01
2013-2-23,51,44,36,43,37,33,98,79,51,0.00,40.00,7,3,17,0.02
2013-2-24,57,42,30,39,35,29,97,80,42,0.00,40.00,5,2,11,0.00
2013-2-25,58,44,35,43,37,34,97,80,49,0.00,40.00,6,2,14,0.00
2013-2-26,60,41,29,40,34,28,97,79,41,0.00,40.00,4,1,9,0.00
2013-2-27,63,44,31,46,38,28,98,84,29,0.00,40.00,6,2,11,0.04
2013-2-28,63,52,45,54,48,44,99,90,71,0.00,40.00,6,2,10,0.04
2013-3-1,67,51,42,53,46,41,99,86,51,0.00,40.00,4,2,10,0.01
2013-3-2,61,49,42,53,46,41,99,92,74,0.00,40.00,3,1,7,0.01
2013-3-3,61,50,45,51,46,43,99,88,63,0.00,40.00,5,2,10,0.01
2013-3-4,55,45,39,46,42,38,98,90,63,0.00,40.00,3,2,6,0.01
2013-3-5,53,44,35,46,41,34,98,90,64,0.00,40.00,5,3,16,1.19
2013-3-6,50,44,36,47,42,35,98,94,78,0.00,40.00,6,2,16,1.51
2013-3-7,56,43,35,43,37,34,98,84,48,0.00,40.00,5,2,9,0.02
2013-3-8,55,41,30,41,37,29,98,86,59,0.00,40.00,6,2,14,0.00
2013-3-9,63,45,32,44,38,31,98,80,42,0.00,40.00,6,2,10,0.00
2013-3-10,71,49,33,49,40,32,98,75,32,0.00,40.00,5,2,10,0.00
2013-3-11,66,48,38,52,43,37,98,86,53,0.00,40.00,5,2,11,0.00
2013-3-12,68,49,39,56,44,38,98,87,51,0.00,40.00,5,2,8,0.00
2013-3-13,77,51,39,57,45,38,99,84,40,0.00,40.00,5,2,9,0.00
2013-3-14,60,47,40,52,43,39,98,90,58,0.00,40.00,4,2,14,0.00
2013-3-15,68,49,41,52,45,40,98,89,53,0.00,40.00,6,2,11,0.00
2013-3-16,62,49,40,51,43,39,98,84,56,0.00,40.00,5,2,12,0.00
2013-3-17,60,46,38,48,40,36,98,82,49,0.00,40.00,6,2,11,0.00
2013-3-18,62,46,34,46,39,33,98,81,46,0.00,40.00,4,2,7,0.00
2013-3-19,51,46,40,50,44,39,98,95,89,0.00,40.00,3,1,6,0.32
2013-3-20,57,50,45,55,49,44,99,97,93,0.00,40.00,4,2,8,0.99
2013-3-21,56,45,36,44,38,35,98,81,50,0.00,40.00,7,3,14,0.01
2013-3-22,57,44,32,38,35,30,96,73,43,0.00,40.00,6,3,18,0.00
2013-3-23,61,45,31,46,36,30,98,77,40,0.00,40.00,5,2,10,0.00
2013-3-24,66,46,34,45,39,33,98,81,41,0.00,40.00,4,2,10,0.00
2013-3-25,52,44,37,44,41,36,98,89,70,0.00,40.00,5,2,10,0.00
2013-3-26,67,50,42,47,43,41,97,79,49,0.00,40.00,3,1,9,0.00
2013-3-27,63,52,47,54,48,45,97,88,67,0.00,40.00,3,1,8,0.03
2013-3-28,63,58,51,53,51,47,97,79,60,0.00,40.00,3,2,7,0.01
2013-3-29,75,56,44,57,49,43,98,82,44,0.00,40.00,5,1,10,0.01
2013-3-30,66,54,51,58,52,50,97,90,66,0.00,40.00,5,2,9,0.04
2013-3-31,63,54,48,59,52,47,99,93,62,0.00,40.00,3,1,7,0.35
2013-4-1,65,52,44,56,48,43,99,89,68,0.00,40.00,4,1,9,0.03
2013-4-2,65,52,46,54,48,45,98,88,63,0.00,40.00,4,2,9,0.01
2013-4-3,70,54,45,56,48,44,98,84,52,0.00,40.00,4,2,9,0.01
2013-4-4,63,54,49,58,52,48,98,94,83,0.00,40.00,3,2,9,1.02
2013-4-5,63,55,51,56,52,49,99,90,67,0.00,40.00,3,2,8,0.27
2013-4-6,64,54,50,54,51,49,98,89,64,0.00,40.00,4,2,10,0.22
2013-4-7,57,51,44,53,49,43,98,92,72,0.00,40.00,8,2,25,0.47
2013-4-8,58,48,42,43,39,35,95,71,52,0.00,40.00,7,4,21,0.32
2013-4-9,65,48,35,46,40,34,98,79,47,0.00,40.00,6,2,11,0.00
2013-4-10,68,53,41,53,48,40,98,83,54,0.00,40.00,6,3,12,0.00
2013-4-11,61,51,43,47,44,41,98,78,53,0.00,40.00,7,3,16,0.00
2013-4-12,64,48,41,50,43,40,98,85,55,0.00,40.00,6,2,13,0.00
2013-4-13,58,47,40,49,40,36,98,79,54,0.00,40.00,8,4,19,0.00
2013-4-14,57,45,37,43,38,34,97,79,48,0.00,40.00,5,2,12,0.00
2013-4-15,53,45,38,42,37,33,97,75,55,0.00,40.00,8,4,17,0.00
2013-4-16,59,46,33,40,36,31,96,72,43,0.00,40.00,8,3,19,0.00
2013-4-17,63,48,33,46,38,32,97,73,37,0.00,40.00,7,2,15,0.00
2013-4-18,68,50,37,46,41,36,97,75,45,0.00,40.00,6,2,11,0.00
2013-4-19,69,52,40,50,45,39,98,81,51,0.00,40.00,7,3,15,0.00
2013-4-20,68,52,41,50,44,40,98,77,42,0.00,40.00,5,2,12,0.00
2013-4-21,76,55,40,50,44,39,97,71,35,0.00,40.00,5,2,11,0.00
2013-4-22,83,60,43,54,45,38,97,65,24,0.00,40.00,5,2,11,0.00
2013-4-23,81,61,45,48,39,31,84,50,20,0.00,40.00,4,2,10,0.00
2013-4-24,74,54,41,52,45,39,95,75,45,0.00,40.00,4,2,8,0.00
2013-4-25,68,51,45,52,46,44,97,84,57,0.00,40.00,4,2,8,0.00
2013-4-26,69,53,47,54,48,45,95,83,58,0.00,40.00,5,2,10,0.00
2013-4-27,74,54,45,55,48,44,98,81,51,0.00,40.00,4,2,9,0.00
2013-4-28,77,58,43,52,45,42,98,69,33,0.00,40.00,6,2,12,0.00
2013-4-29,72,58,47,51,46,42,90,67,45,0.00,40.00,7,3,15,0.00
2013-4-30,67,56,44,43,40,36,90,58,35,0.00,40.00,7,3,14,0.00
2013-5-1,86,67,41,47,37,29,89,41,15,0.00,40.00,5,2,9,0.00
2013-5-2,90,66,47,50,36,25,66,39,13,0.00,40.00,5,2,11,0.00
2013-5-3,92,65,46,46,40,33,73,45,17,0.00,40.00,5,1,9,0.00
2013-5-4,89,67,49,54,43,31,79,50,14,0.00,40.00,6,2,12,0.00
2013-5-5,71,57,47,55,48,45,97,74,42,0.00,40.00,6,2,17,0.00
2013-5-6,63,57,51,59,53,48,98,88,64,0.00,40.00,3,1,5,0.10
2013-5-7,69,58,51,55,52,50,98,83,61,0.00,40.00,5,2,10,0.01
2013-5-8,64,53,49,53,49,46,98,87,65,0.00,40.00,5,2,11,0.01
2013-5-9,66,54,49,54,48,46,94,83,62,0.00,40.00,5,2,11,0.00
2013-5-10,71,53,48,56,48,-100,97,87,55,0.00,40.00,6,2,13,0.00
2013-5-11,82,60,45,59,51,44,98,77,44,0.00,40.00,4,2,8,0.00
2013-5-12,74,58,47,59,52,46,98,81,55,0.00,40.00,5,2,12,0.00
2013-5-13,69,57,49,56,51,48,97,81,57,0.00,40.00,6,2,14,0.00
2013-5-14,69,55,45,50,46,44,98,77,43,0.00,40.00,6,2,14,0.00
2013-5-15,66,52,41,50,44,40,97,78,43,0.00,40.00,6,3,13,0.00
2013-5-16,65,52,51,56,34,-100,96,82,56,0.00,40.00,5,2,13,0.00
2013-5-17,65,54,46,51,43,-100,97,77,49,0.00,40.00,6,3,14,0.00
2013-5-18,68,55,44,51,47,43,97,78,47,0.00,40.00,6,3,17,0.00
2013-5-19,73,58,43,51,46,42,97,71,35,0.00,40.00,6,2,11,0.00
2013-5-20,80,57,45,55,47,44,97,75,33,0.00,40.00,5,2,12,0.00
2013-5-21,63,53,44,47,44,37,96,72,51,0.00,40.00,8,5,17,0.00
2013-5-22,59,48,38,41,38,35,90,71,47,0.00,40.00,8,4,19,0.00
2013-5-23,62,50,41,43,40,38,94,71,45,0.00,40.00,6,3,12,0.00
2013-5-24,64,50,38,46,42,37,97,76,50,0.00,40.00,7,3,15,0.00
2013-5-25,63,51,38,48,43,37,97,78,51,0.00,40.00,6,3,14,0.00
2013-5-26,70,56,49,56,50,47,98,82,51,0.00,40.00,6,2,14,0.01
2013-5-27,58,53,47,57,52,46,98,96,94,0.00,40.00,2,1,5,0.67
2013-5-28,67,58,53,58,53,50,98,86,62,0.00,40.00,6,2,12,0.20
2013-5-29,65,55,49,55,51,47,98,87,65,0.00,40.00,5,3,14,0.12
2013-5-30,67,54,44,49,46,43,97,76,50,0.00,40.00,6,3,13,0.01
2013-5-31,73,56,40,52,45,39,98,71,37,0.00,40.00,6,2,12,0.00
2013-6-1,78,59,44,53,47,43,97,69,35,0.00,40.00,7,3,13,0.00
2013-6-2,74,59,49,54,50,48,97,75,46,0.00,40.00,5,3,11,0.00
2013-6-3,77,59,48,57,52,47,97,79,50,0.00,40.00,5,2,10,0.00
2013-6-4,74,58,49,58,51,48,98,82,54,0.00,40.00,5,2,9,0.00
2013-6-5,76,59,48,58,51,47,97,79,52,0.00,40.00,5,2,9,0.01
2013-6-6,82,60,46,58,51,45,98,78,43,0.00,40.00,4,2,7,0.01
2013-6-7,94,67,45,61,52,44,98,66,31,0.00,40.00,5,2,10,0.00
2013-6-8,100,71,54,65,55,49,92,63,27,0.00,40.00,4,1,8,0.00
2013-6-9,71,58,51,56,52,50,95,81,60,0.00,40.00,4,2,10,0.00
2013-6-10,65,57,52,56,52,50,97,85,67,0.00,40.00,4,2,8,0.00
2013-6-11,72,59,48,54,49,45,94,72,46,0.00,40.00,6,3,12,0.00
2013-6-12,69,55,45,49,46,43,96,73,47,0.00,40.00,6,3,15,0.00
2013-6-13,68,55,45,49,46,43,92,72,49,0.00,40.00,6,3,17,0.00
2013-6-14,78,59,43,53,46,42,97,69,31,0.00,40.00,6,2,12,0.00
2013-6-15,72,56,43,53,48,42,97,77,49,0.00,40.00,5,2,11,0.00
2013-6-16,72,59,49,54,50,47,95,74,47,0.00,40.00,6,3,11,0.00
2013-6-17,71,57,49,55,51,48,97,82,53,0.00,40.00,6,2,11,0.00
2013-6-18,66,58,53,53,50,46,95,76,50,0.00,40.00,7,4,15,0.00
2013-6-19,68,56,47,52,47,45,96,74,47,0.00,40.00,7,3,14,0.00
2013-6-20,70,52,44,51,46,43,97,83,47,0.00,40.00,5,2,10,0.00
2013-6-22,76,64,46,56,52,45,97,68,37,0.00,40.00,7,4,14,0.00
2013-6-23,68,60,55,65,58,54,98,94,82,0.00,40.00,2,1,6,0.08
2013-6-24,62,58,54,58,56,53,98,94,78,0.00,40.00,2,1,7,0.27
2013-6-25,66,61,57,65,60,56,98,97,94,0.00,40.00,1,1,8,1.25
2013-6-26,77,67,60,68,62,59,100,88,54,0.00,40.00,4,1,9,0.06
2013-6-27,82,66,56,65,59,56,100,81,47,0.00,40.00,5,2,10,0.01
2013-6-28,89,70,55,67,59,55,100,74,40,0.00,40.00,5,2,10,0.00
2013-6-29,91,70,56,69,58,54,100,72,33,0.00,40.00,5,2,11,0.00
2013-6-30,88,70,53,63,57,53,100,71,38,0.00,40.00,5,2,10,0.00
2013-7-1,88,67,50,65,57,50,100,75,36,0.00,40.00,5,2,10,0.00
2013-7-2,94,74,60,66,62,53,100,73,39,0.00,40.00,4,2,10,0.00
2013-7-3,90,74,55,68,61,55,99,68,43,0.00,40.00,4,2,10,0.12
2013-7-4,83,70,53,65,57,46,100,69,30,0.00,40.00,7,4,13,0.15
2013-7-5,77,61,50,57,52,48,100,74,46,0.00,40.00,5,3,11,0.00
2013-7-6,81,62,49,58,52,48,100,75,38,0.00,40.00,4,2,8,0.00
2013-7-7,78,63,49,59,54,49,100,76,48,0.00,40.00,5,2,9,0.00
2013-7-8,79,57,48,58,52,48,100,85,48,0.00,40.00,4,2,10,0.00
2013-7-9,88,64,46,60,52,46,100,72,34,0.00,40.00,4,2,9,0.00
2013-7-10,87,64,49,59,52,-100,100,72,37,0.00,40.00,5,2,9,0.00
2013-7-11,81,59,48,58,52,48,100,80,44,0.00,40.00,4,2,8,0.00
2013-7-12,82,60,46,59,51,46,100,78,37,0.00,40.00,5,2,9,0.00
2013-7-13,86,63,48,58,50,44,99,71,29,0.00,40.00,4,2,11,0.00
2013-7-14,83,63,47,56,52,47,99,72,38,0.00,40.00,4,2,8,0.00
2013-7-15,72,57,47,56,50,47,100,83,52,0.00,40.00,5,2,8,0.00
2013-7-16,74,62,56,57,54,52,94,76,52,0.00,40.00,4,3,10,0.01
2013-7-17,78,62,51,59,54,50,97,78,50,0.00,40.00,5,2,9,0.00
2013-7-18,85,63,49,61,53,49,99,75,38,0.00,40.00,4,2,8,0.00
2013-7-19,84,62,49,60,53,48,99,77,40,0.00,40.00,4,2,8,0.00
2013-7-20,89,61,50,61,45,-100,98,69,37,0.00,40.00,4,2,7,0.00
2013-7-21,88,65,49,60,53,48,98,71,37,0.00,40.00,4,2,7,0.00
2013-7-22,78,61,48,57,51,47,99,74,45,0.00,40.00,5,3,10,0.00
2013-7-23,78,61,52,60,54,50,93,79,47,0.00,40.00,4,2,8,0.00
2013-7-24,87,68,53,61,54,48,99,67,29,0.00,40.00,5,2,9,0.00
2013-7-25,90,66,54,60,54,51,97,70,34,0.00,40.00,4,2,8,0.00
2013-7-26,82,63,49,58,52,48,98,73,41,0.00,40.00,4,2,9,0.00
2013-7-27,83,62,50,59,53,49,99,76,40,0.00,40.00,4,2,10,0.00
2013-7-28,81,61,48,59,52,48,99,78,43,0.00,40.00,4,2,7,0.00
2013-7-29,76,57,49,58,52,48,99,83,53,0.00,40.00,5,2,10,0.00
2013-7-30,76,59,51,59,53,50,98,82,53,0.00,40.00,4,2,9,0.00
2013-7-31,76,59,48,59,51,47,99,79,46,0.00,40.00,6,3,11,0.00
2013-8-1,73,60,52,53,51,49,94,74,46,0.00,40.00,6,3,16,0.00
2013-8-2,77,60,51,56,51,49,95,76,42,0.00,40.00,5,2,11,0.00
2013-8-3,83,58,47,60,51,46,99,82,40,0.00,40.00,3,1,7,0.00
2013-8-4,79,59,50,57,52,49,98,81,47,0.00,40.00,4,2,9,0.00
2013-8-5,80,58,49,58,52,48,99,84,46,0.00,40.00,4,2,9,0.00
2013-8-6,75,56,49,58,52,48,98,86,55,0.00,40.00,5,2,9,0.01
2013-8-7,73,60,53,57,53,51,98,81,52,0.00,40.00,4,2,10,0.02
2013-8-8,71,59,52,57,53,50,97,83,55,0.00,40.00,5,2,10,0.01
2013-8-9,74,59,52,59,52,51,98,80,51,0.00,40.00,4,2,8,0.00
2013-8-10,76,61,53,58,54,51,96,79,49,0.00,40.00,5,3,9,0.00
2013-8-11,80,62,52,61,54,51,98,79,41,0.00,40.00,5,2,10,0.00
2013-8-21,78,62,56,61,56,53,98,83,53,0.00,40.00,4,2,10,0.00
2013-8-22,73,61,55,59,55,52,98,82,56,0.00,40.00,4,2,10,0.00
2013-8-23,75,61,54,59,54,52,96,79,51,0.00,40.00,5,2,10,0.00
2013-8-24,82,60,51,57,54,50,97,81,40,0.00,40.00,4,2,8,0.00
2013-8-25,73,62,54,62,57,53,98,86,60,0.00,40.00,4,2,9,0.01
2013-8-26,76,62,54,58,53,49,99,77,42,0.00,40.00,6,2,11,0.01
2013-8-27,76,56,49,59,52,48,98,91,55,0.00,40.00,4,1,7,0.01
2013-8-31,81,63,54,64,57,52,98,84,47,0.00,40.00,5,2,10,0.01
2013-9-1,83,62,49,60,54,48,98,81,39,0.00,40.00,5,2,10,0.01
2013-9-2,80,65,58,64,59,57,97,82,54,0.00,40.00,5,2,10,0.00
2013-9-3,77,63,54,61,56,53,98,80,43,0.00,40.00,5,2,12,0.00
2013-9-4,76,65,57,59,57,53,95,76,46,0.00,40.00,6,3,12,0.00
2013-9-5,74,62,54,57,55,53,98,80,49,0.00,40.00,6,2,12,0.00
2013-9-6,56,52,49,55,51,48,97,96,94,0.00,40.00,2,1,4,0.00
2013-9-24,70,58,50,57,52,49,97,81,52,0.00,40.00,7,3,13,0.01
2013-9-25,65,54,46,50,46,41,98,76,49,0.00,40.00,6,3,16,0.00
2013-9-26,68,53,40,47,43,39,97,73,38,0.00,40.00,7,3,14,0.00
2013-9-27,72,54,40,51,43,35,98,73,29,0.00,40.00,5,2,10,0.00
2013-9-28,74,56,43,57,49,42,97,82,41,0.00,40.00,5,2,10,0.00
2013-9-29,64,61,57,63,60,56,98,97,96,0.00,40.00,3,2,8,0.60
2013-9-30,68,61,51,62,57,47,99,87,53,0.00,40.00,5,2,10,0.66
2013-10-25,63,51,44,50,47,43,96,87,60,0.00,40.00,4,1,8,0.00
2013-10-26,75,51,40,52,44,39,98,82,38,0.00,40.00,3,1,6,0.00
2013-10-27,60,47,37,50,42,36,98,86,60,0.00,40.00,4,2,10,0.00
2013-10-28,59,49,42,47,42,-100,97,84,54,0.00,40.00,5,2,11,0.00
2013-10-29,61,47,37,50,43,36,98,87,59,0.00,40.00,3,1,7,0.00
2013-10-30,63,46,36,51,42,35,98,87,57,0.00,40.00,4,1,8,0.00
2013-10-31,70,51,38,50,44,37,98,81,43,0.00,40.00,3,1,6,0.00
2013-12-26,67,47,35,47,37,33,94,75,32,0.00,40.00,2,0,4,0.00
2013-12-27,54,43,36,45,38,32,97,86,65,0.00,40.00,1,0,4,0.00
2013-12-28,60,43,31,47,37,30,98,84,48,0.00,40.00,1,0,4,0.00
2013-12-29,65,46,36,40,32,26,91,63,28,0.00,40.00,1,0,4,0.00
2013-12-30,62,45,34,40,35,29,92,72,37,0.00,40.00,2,0,4,0.00
2013-12-31,55,44,38,44,40,36,97,89,67,0.00,40.00,2,0,6,0.00
2014-1-1,61,44,34,46,40,34,98,87,50,0.00,40.00,1,0,5,0.00